Time;durP1;ratioP1;P1;durP2;ratioP2;P2;SDS_P1;SDS_P2;PMS_P1;PMS_P2;Temp;Humidity;BMP_temperature;BMP_pressure;BME280_temperature;BME280_humidity;BME280_pressure;Samples;Min_cycle;Max_cycle;Signal;HPM_P1;HPM_P2
2023/04/29 00:00:05;;;;;;;9.40;5.50;;;13.40;53.10;;;;;;5081549;28;20518;-65
2023/04/29 00:02:32;;;;;;;8.07;4.77;;;13.40;53.00;;;;;;5077318;28;21038;-66
2023/04/29 00:04:59;;;;;;;8.27;5.17;;;13.40;53.00;;;;;;5080681;28;20467;-66
2023/04/29 00:07:25;;;;;;;7.80;4.83;;;13.40;53.10;;;;;;5084175;28;21105;-66
2023/04/29 00:09:52;;;;;;;9.30;5.73;;;13.40;53.00;;;;;;5079713;28;20479;-66
2023/04/29 00:12:19;;;;;;;8.20;4.87;;;13.40;52.90;;;;;;5082876;28;20571;-66
2023/04/29 00:14:46;;;;;;;7.70;5.57;;;13.40;52.80;;;;;;5085046;28;20464;-66
2023/04/29 00:17:15;;;;;;;8.63;5.30;;;13.40;52.70;;;;;;5081878;28;20487;-66
2023/04/29 00:19:42;;;;;;;7.50;5.17;;;13.40;52.90;;;;;;5077670;28;20484;-66
2023/04/29 00:22:09;;;;;;;8.87;5.53;;;13.40;52.70;;;;;;5081788;28;20456;-66
2023/04/29 00:24:35;;;;;;;11.33;5.73;;;13.40;52.60;;;;;;5081979;28;20468;-66
2023/04/29 00:27:02;;;;;;;12.10;6.63;;;13.40;52.50;;;;;;5084400;28;20996;-66
2023/04/29 00:29:29;;;;;;;9.40;5.50;;;13.40;52.50;;;;;;5080160;28;20515;-66
2023/04/29 00:31:56;;;;;;;8.23;5.50;;;13.40;52.50;;;;;;5085382;28;20478;-65
2023/04/29 00:34:24;;;;;;;8.77;5.63;;;13.30;52.50;;;;;;5085660;28;20464;-66
2023/04/29 00:36:51;;;;;;;8.20;5.93;;;13.30;53.10;;;;;;5079598;28;20493;-66
2023/04/29 00:39:17;;;;;;;9.30;5.53;;;13.30;52.50;;;;;;5076652;28;21011;-66
2023/04/29 00:41:44;;;;;;;9.40;5.77;;;13.20;52.80;;;;;;5079444;28;20464;-65
2023/04/29 00:44:11;;;;;;;8.10;5.60;;;13.20;52.70;;;;;;5074338;28;21123;-66
2023/04/29 00:46:38;;;;;;;9.50;6.47;;;13.20;52.70;;;;;;5081363;28;20507;-66
2023/04/29 00:49:05;;;;;;;7.90;5.60;;;13.20;52.90;;;;;;5082587;28;20476;-66
2023/04/29 00:51:33;;;;;;;9.20;5.47;;;13.20;52.90;;;;;;5087657;28;20468;-66
2023/04/29 00:53:59;;;;;;;7.93;4.90;;;13.20;52.80;;;;;;5086705;28;21261;-66
2023/04/29 00:56:29;;;;;;;9.57;5.70;;;13.20;52.80;;;;;;5087577;28;20460;-66
2023/04/29 00:58:58;;;;;;;9.00;5.93;;;13.20;52.80;;;;;;5088102;28;20537;-66
2023/04/29 01:01:25;;;;;;;9.80;5.53;;;13.20;52.70;;;;;;5086439;28;20777;-65
2023/04/29 01:03:52;;;;;;;8.67;6.40;;;13.20;53.20;;;;;;5086839;28;20972;-65
2023/04/29 01:06:29;;;;;;;12.60;6.00;;;13.20;53.30;;;;;;5088791;28;20479;-65
2023/04/29 01:09:13;;;;;;;9.80;6.00;;;13.20;53.50;;;;;;5082169;28;21322;-65
2023/04/29 01:11:53;;;;;;;9.97;6.27;;;13.10;53.50;;;;;;5085239;28;20460;-65
2023/04/29 01:14:20;;;;;;;10.10;6.50;;;13.10;53.60;;;;;;5085273;28;20968;-66
2023/04/29 01:16:52;;;;;;;11.67;7.33;;;13.10;53.30;;;;;;5082549;28;20452;-66
2023/04/29 01:19:32;;;;;;;11.97;7.30;;;13.10;53.40;;;;;;5087865;28;20544;-66
2023/04/29 01:21:58;;;;;;;12.30;8.83;;;13.10;53.30;;;;;;5081933;28;21074;-65
2023/04/29 01:24:26;;;;;;;12.43;9.23;;;13.10;53.20;;;;;;5086232;28;20460;-65
2023/04/29 01:26:59;;;;;;;10.67;7.70;;;13.10;53.60;;;;;;5081323;28;20533;-66
2023/04/29 01:29:33;;;;;;;12.63;9.57;;;13.10;53.50;;;;;;5086338;28;20487;-66
2023/04/29 01:34:42;;;;;;;14.77;9.53;;;13.10;53.40;;;;;;5629493;22;20491;-64
2023/04/29 01:37:18;;;;;;;16.47;12.00;;;13.20;53.80;;;;;;5082966;28;20778;-64
2023/04/29 01:39:57;;;;;;;24.17;13.10;;;13.20;53.70;;;;;;5080734;28;20833;-64
2023/04/29 01:42:30;;;;;;;24.60;13.80;;;13.20;53.90;;;;;;5088945;28;20456;-64
2023/04/29 01:45:00;;;;;;;23.60;12.43;;;13.30;54.30;;;;;;5087374;28;20523;-64
2023/04/29 01:47:29;;;;;;;26.73;13.30;;;13.30;53.70;;;;;;5087013;28;20479;-64
2023/04/29 01:49:56;;;;;;;25.93;13.47;;;13.40;53.90;;;;;;5081041;28;20537;-65
2023/04/29 01:52:22;;;;;;;21.10;14.57;;;13.40;54.00;;;;;;5079768;28;21295;-65
2023/04/29 01:54:50;;;;;;;22.10;15.10;;;13.40;54.10;;;;;;5082539;28;20488;-65
2023/04/29 01:57:18;;;;;;;25.63;14.67;;;13.40;54.30;;;;;;5083005;28;20460;-65
2023/04/29 01:59:44;;;;;;;33.97;16.40;;;13.40;54.10;;;;;;5086990;28;21025;-65
2023/04/29 02:02:14;;;;;;;30.23;17.00;;;13.40;54.40;;;;;;5086231;28;20472;-65
2023/04/29 02:04:41;;;;;;;22.50;16.00;;;13.50;54.40;;;;;;5085528;28;20541;-65
2023/04/29 02:07:08;;;;;;;24.73;15.53;;;13.50;54.40;;;;;;5077376;28;20476;-65
2023/04/29 02:09:35;;;;;;;22.50;16.73;;;13.50;54.20;;;;;;5079268;28;20456;-65
2023/04/29 02:12:03;;;;;;;23.10;16.70;;;13.50;54.70;;;;;;5081404;28;20541;-66
2023/04/29 02:14:30;;;;;;;24.33;17.27;;;13.60;54.40;;;;;;5088113;28;20519;-65
2023/04/29 02:16:57;;;;;;;25.00;16.90;;;13.60;54.40;;;;;;5081046;28;20495;-65
2023/04/29 02:19:24;;;;;;;20.87;15.77;;;13.60;54.50;;;;;;5084431;28;20958;-65
2023/04/29 02:21:50;;;;;;;23.33;16.60;;;13.70;54.70;;;;;;5083852;28;20472;-65
2023/04/29 02:24:17;;;;;;;22.17;16.13;;;13.70;54.40;;;;;;5081970;28;20503;-65
2023/04/29 02:26:44;;;;;;;20.80;14.90;;;13.70;54.30;;;;;;5082949;28;20560;-65
2023/04/29 02:29:12;;;;;;;24.53;15.57;;;13.70;54.30;;;;;;5079949;28;20820;-65
2023/04/29 02:31:39;;;;;;;23.10;15.60;;;13.70;54.20;;;;;;5082385;28;20485;-65
2023/04/29 02:34:05;;;;;;;20.80;15.83;;;13.70;55.10;;;;;;5084837;28;20499;-65
2023/04/29 02:36:32;;;;;;;23.70;16.30;;;13.70;54.50;;;;;;5085498;28;20986;-65
2023/04/29 02:38:59;;;;;;;23.70;16.83;;;13.80;54.30;;;;;;5080659;28;20492;-65
2023/04/29 02:41:26;;;;;;;23.93;17.03;;;13.80;54.30;;;;;;5082947;28;20460;-65
2023/04/29 02:43:53;;;;;;;22.60;16.80;;;13.80;54.20;;;;;;5083362;28;21026;-65
2023/04/29 02:46:21;;;;;;;23.27;16.23;;;13.90;54.10;;;;;;5083528;28;20484;-65
2023/04/29 02:48:47;;;;;;;23.20;16.87;;;13.80;54.40;;;;;;5084327;28;20541;-66
2023/04/29 02:51:14;;;;;;;25.20;16.77;;;13.80;54.20;;;;;;5080626;28;20491;-65
2023/04/29 02:53:41;;;;;;;23.93;16.87;;;13.90;54.20;;;;;;5079040;28;20479;-65
2023/04/29 02:56:07;;;;;;;23.00;16.80;;;13.90;54.30;;;;;;5083175;28;20868;-65
2023/04/29 02:58:34;;;;;;;24.93;16.70;;;13.90;54.20;;;;;;5081848;28;20475;-65
2023/04/29 03:01:01;;;;;;;25.30;17.30;;;13.90;54.20;;;;;;5084411;28;20528;-66
2023/04/29 03:03:29;;;;;;;22.67;16.80;;;13.90;54.30;;;;;;5079997;28;20500;-65
2023/04/29 03:05:56;;;;;;;23.90;16.20;;;13.90;54.10;;;;;;5081083;28;20483;-66
2023/04/29 03:08:23;;;;;;;22.50;15.53;;;13.90;54.00;;;;;;5078026;28;20487;-65
2023/04/29 03:10:50;;;;;;;25.20;16.90;;;13.90;54.20;;;;;;5081478;28;20471;-65
2023/04/29 03:13:16;;;;;;;21.83;16.20;;;13.90;54.10;;;;;;5081793;28;20975;-65
2023/04/29 03:15:43;;;;;;;24.03;16.60;;;13.90;54.00;;;;;;5080762;28;20468;-66
2023/04/29 03:18:10;;;;;;;21.57;15.60;;;13.90;53.90;;;;;;5076638;28;20492;-65
2023/04/29 03:20:38;;;;;;;24.70;16.20;;;13.90;53.90;;;;;;5081568;28;20471;-65
2023/04/29 03:23:05;;;;;;;25.50;16.50;;;13.90;53.80;;;;;;5082619;28;20460;-65
2023/04/29 03:25:31;;;;;;;22.80;17.10;;;13.90;53.80;;;;;;5079940;28;20485;-65
2023/04/29 03:27:58;;;;;;;26.33;15.97;;;13.90;53.90;;;;;;5078040;28;20488;-65
2023/04/29 03:30:25;;;;;;;27.00;17.30;;;13.90;53.90;;;;;;5081328;28;20460;-65
2023/04/29 03:32:52;;;;;;;21.73;15.47;;;13.90;53.80;;;;;;5081214;28;20461;-65
2023/04/29 03:35:18;;;;;;;27.70;17.30;;;13.90;53.80;;;;;;5085536;28;20483;-65
2023/04/29 03:37:46;;;;;;;24.03;16.93;;;13.90;53.70;;;;;;5080120;28;20460;-65
2023/04/29 03:40:14;;;;;;;25.27;17.27;;;13.90;53.80;;;;;;5076708;28;20468;-65
2023/04/29 03:42:41;;;;;;;25.23;16.83;;;13.90;53.80;;;;;;5079992;28;20547;-65
2023/04/29 03:45:09;;;;;;;26.33;17.40;;;13.90;53.90;;;;;;5080159;28;20491;-65
2023/04/29 03:47:35;;;;;;;24.90;17.20;;;13.90;53.90;;;;;;5082083;28;20928;-65
2023/04/29 03:50:03;;;;;;;28.90;17.47;;;13.90;53.90;;;;;;5082572;28;20468;-65
2023/04/29 03:52:30;;;;;;;30.43;19.60;;;13.90;53.90;;;;;;5080540;28;20560;-65
2023/04/29 03:54:58;;;;;;;23.83;16.53;;;13.90;53.70;;;;;;5080258;28;20479;-65
2023/04/29 03:57:24;;;;;;;26.93;16.30;;;13.90;53.70;;;;;;5072537;28;20457;-65
2023/04/29 03:59:51;;;;;;;23.17;16.27;;;14.00;53.60;;;;;;5079937;28;20464;-65
2023/04/29 04:02:18;;;;;;;23.13;16.90;;;14.00;53.70;;;;;;5079747;28;20548;-65
2023/04/29 04:04:45;;;;;;;27.60;17.00;;;14.00;53.50;;;;;;5076837;28;20487;-65
2023/04/29 04:07:11;;;;;;;24.90;16.40;;;14.00;53.40;;;;;;5075524;28;20484;-65
2023/04/29 04:09:38;;;;;;;24.40;15.23;;;14.00;53.30;;;;;;5077715;28;20464;-65
2023/04/29 04:12:06;;;;;;;23.83;15.43;;;14.00;53.40;;;;;;5083692;28;20823;-65
2023/04/29 04:14:33;;;;;;;23.50;16.33;;;14.00;53.40;;;;;;5111082;22;20495;-69
2023/04/29 04:17:00;;;;;;;21.60;15.40;;;14.00;53.10;;;;;;5085573;28;20544;-68
2023/04/29 04:19:28;;;;;;;26.70;16.77;;;14.00;53.20;;;;;;5082662;28;20557;-67
2023/04/29 04:21:54;;;;;;;23.90;15.87;;;14.00;53.20;;;;;;5086203;28;20464;-67
2023/04/29 04:24:21;;;;;;;22.87;16.47;;;14.00;53.00;;;;;;5077290;28;20689;-67
2023/04/29 04:26:48;;;;;;;20.50;15.17;;;14.00;52.90;;;;;;5071126;28;20516;-68
2023/04/29 04:29:16;;;;;;;24.23;16.47;;;14.00;53.00;;;;;;5069404;28;20464;-67
2023/04/29 04:31:43;;;;;;;23.70;16.80;;;14.10;52.90;;;;;;5064844;28;20690;-68
2023/04/29 04:34:10;;;;;;;24.67;16.97;;;14.10;52.50;;;;;;5064143;28;20485;-66
2023/04/29 04:36:37;;;;;;;23.30;15.80;;;14.10;52.60;;;;;;5067286;28;20465;-68
2023/04/29 04:39:04;;;;;;;21.63;14.57;;;14.10;52.60;;;;;;5065937;28;20806;-67
2023/04/29 04:41:31;;;;;;;19.60;14.17;;;14.10;52.70;;;;;;5069727;28;20464;-67
2023/04/29 04:43:58;;;;;;;20.23;14.77;;;14.20;52.30;;;;;;5067082;28;21083;-68
2023/04/29 04:46:26;;;;;;;19.77;14.60;;;14.20;52.50;;;;;;5063906;28;21131;-68
2023/04/29 04:48:53;;;;;;;21.20;14.27;;;14.20;52.40;;;;;;5063871;28;20486;-68
2023/04/29 04:51:19;;;;;;;19.67;13.80;;;14.20;52.30;;;;;;5069089;28;20952;-68
2023/04/29 04:53:46;;;;;;;21.67;14.30;;;14.30;52.30;;;;;;5064525;28;20485;-67
2023/04/29 04:56:13;;;;;;;18.00;13.10;;;14.30;52.10;;;;;;5065764;28;20469;-68
2023/04/29 04:58:40;;;;;;;19.03;13.77;;;14.40;51.80;;;;;;5063962;28;20487;-68
2023/04/29 05:01:06;;;;;;;16.43;12.37;;;14.30;51.90;;;;;;5064639;28;20484;-68
2023/04/29 05:03:34;;;;;;;17.07;13.07;;;14.40;51.60;;;;;;5066215;28;20484;-68
2023/04/29 05:06:01;;;;;;;19.67;15.20;;;14.40;51.70;;;;;;5062467;28;20942;-68
2023/04/29 05:08:28;;;;;;;16.57;12.67;;;14.40;51.60;;;;;;5067925;28;20480;-67
2023/04/29 05:10:55;;;;;;;17.87;13.97;;;14.50;51.60;;;;;;5066253;28;20460;-68
2023/04/29 05:13:21;;;;;;;16.50;12.07;;;14.40;51.50;;;;;;5065108;28;20480;-68
2023/04/29 05:15:48;;;;;;;18.43;13.23;;;14.50;51.50;;;;;;5057944;28;20476;-68
2023/04/29 05:18:15;;;;;;;18.63;13.50;;;14.50;51.40;;;;;;5058325;28;20469;-68
2023/04/29 05:20:43;;;;;;;17.33;13.03;;;14.60;51.60;;;;;;5071042;28;20457;-68
2023/04/29 05:23:09;;;;;;;17.90;12.80;;;14.60;51.30;;;;;;5065989;28;20464;-68
2023/04/29 05:25:36;;;;;;;15.53;10.70;;;14.60;51.00;;;;;;5058417;28;20482;-68
2023/04/29 05:28:03;;;;;;;16.77;12.27;;;14.60;51.00;;;;;;5070557;28;20477;-68
2023/04/29 05:30:30;;;;;;;16.40;11.97;;;14.70;50.90;;;;;;5068492;28;20541;-68
2023/04/29 05:32:57;;;;;;;15.23;12.33;;;14.70;50.70;;;;;;5064615;28;20461;-68
2023/04/29 05:35:24;;;;;;;15.33;12.13;;;14.80;50.60;;;;;;5062321;28;20591;-68
2023/04/29 05:37:52;;;;;;;16.67;11.90;;;14.90;50.60;;;;;;5072629;28;20461;-69
2023/04/29 05:40:18;;;;;;;13.33;11.10;;;14.90;50.40;;;;;;5070036;28;20468;-68
2023/04/29 05:42:45;;;;;;;15.40;10.60;;;14.90;50.00;;;;;;5064445;28;20465;-68
2023/04/29 05:45:12;;;;;;;12.93;9.67;;;15.10;49.50;;;;;;5067087;28;20535;-68
2023/04/29 05:47:39;;;;;;;14.57;11.23;;;15.20;49.30;;;;;;5068499;28;20996;-68
2023/04/29 05:50:07;;;;;;;17.77;11.40;;;15.30;49.00;;;;;;5062738;28;20464;-67
2023/04/29 05:52:33;;;;;;;14.20;10.67;;;15.50;48.70;;;;;;5067167;28;20480;-67
2023/04/29 05:55:01;;;;;;;13.30;10.17;;;15.70;49.10;;;;;;5070687;28;20571;-68
2023/04/29 05:57:28;;;;;;;14.63;9.63;;;16.20;47.80;;;;;;5061570;28;20477;-68
2023/04/29 05:59:56;;;;;;;16.73;9.20;;;16.50;47.60;;;;;;5060690;28;20477;-68
2023/04/29 06:02:23;;;;;;;13.77;9.03;;;17.10;45.80;;;;;;5062604;28;20972;-68
2023/04/29 06:04:49;;;;;;;10.70;8.43;;;17.40;44.10;;;;;;5059234;28;21066;-69
2023/04/29 06:07:17;;;;;;;11.37;9.13;;;17.60;42.70;;;;;;5063835;28;20543;-69
2023/04/29 06:09:44;;;;;;;9.80;7.87;;;17.60;41.60;;;;;;5065742;28;20469;-69
2023/04/29 06:12:12;;;;;;;9.70;7.50;;;17.50;40.80;;;;;;5052824;28;20470;-69
2023/04/29 06:14:39;;;;;;;11.20;8.10;;;17.60;41.70;;;;;;5049846;28;20508;-69
2023/04/29 06:17:06;;;;;;;11.70;8.43;;;18.70;39.00;;;;;;5057001;28;20470;-69
2023/04/29 06:19:32;;;;;;;12.73;7.27;;;18.80;37.00;;;;;;5062014;28;20465;-69
2023/04/29 06:21:59;;;;;;;11.20;8.90;;;18.60;36.80;;;;;;5055998;28;20482;-69
2023/04/29 06:24:26;;;;;;;8.80;6.00;;;18.30;36.70;;;;;;5054203;28;20587;-69
2023/04/29 06:26:53;;;;;;;9.20;6.90;;;18.50;37.50;;;;;;5055482;28;20464;-68
2023/04/29 06:29:21;;;;;;;9.20;7.50;;;19.20;35.10;;;;;;5057099;28;20477;-68
2023/04/29 06:31:48;;;;;;;10.10;7.20;;;19.60;34.60;;;;;;5061129;28;20574;-70
2023/04/29 06:34:14;;;;;;;8.60;6.73;;;21.70;30.90;;;;;;5061473;28;21024;-69
2023/04/29 06:36:41;;;;;;;7.60;5.73;;;22.50;25.50;;;;;;5067443;28;20478;-68
2023/04/29 06:39:08;;;;;;;8.40;6.77;;;22.20;23.90;;;;;;5069034;28;20467;-68
2023/04/29 06:41:35;;;;;;;8.47;5.90;;;21.50;24.30;;;;;;5059198;28;20974;-69
2023/04/29 06:44:02;;;;;;;7.40;5.47;;;21.30;24.90;;;;;;5060968;28;20888;-69
2023/04/29 06:46:30;;;;;;;6.43;4.53;;;22.80;22.60;;;;;;5059447;28;20711;-68
2023/04/29 06:48:57;;;;;;;6.50;4.80;;;25.30;16.20;;;;;;5064062;28;20875;-69
2023/04/29 06:51:23;;;;;;;7.30;5.40;;;25.30;13.40;;;;;;5058012;28;20473;-70
2023/04/29 06:53:50;;;;;;;11.00;5.80;;;24.40;13.60;;;;;;5065729;28;20490;-69
2023/04/29 06:56:17;;;;;;;7.43;5.10;;;23.80;15.20;;;;;;5060853;28;20461;-69
2023/04/29 06:58:44;;;;;;;7.90;4.60;;;24.80;14.90;;;;;;5065308;28;20811;-69
2023/04/29 07:01:10;;;;;;;6.27;4.27;;;27.60;9.60;;;;;;5059922;28;20465;-69
2023/04/29 07:03:38;;;;;;;8.20;3.83;;;29.90;5.20;;;;;;5066823;28;20523;-69
2023/04/29 07:06:05;;;;;;;9.87;4.47;;;31.80;1.10;;;;;;5056604;28;20460;-70
2023/04/29 07:08:32;;;;;;;6.00;4.33;;;31.70;1.00;;;;;;5060475;28;20481;-69
2023/04/29 07:10:59;;;;;;;5.90;4.30;;;32.30;1.00;;;;;;5061370;28;20457;-70
2023/04/29 07:13:26;;;;;;;6.63;4.60;;;32.30;1.00;;;;;;5060368;28;20473;-70
2023/04/29 07:15:52;;;;;;;5.43;4.03;;;32.50;1.00;;;;;;5066601;28;20456;-69
2023/04/29 07:18:19;;;;;;;6.33;4.07;;;32.70;1.00;;;;;;5067993;28;20472;-69
2023/04/29 07:20:48;;;;;;;5.23;3.60;;;33.60;1.00;;;;;;5064483;28;20468;-69
2023/04/29 07:23:15;;;;;;;5.50;3.60;;;34.60;1.00;;;;;;5057546;28;20476;-70
2023/04/29 07:25:41;;;;;;;5.00;3.60;;;36.10;1.00;;;;;;5053402;28;20461;-69
2023/04/29 07:28:08;;;;;;;5.13;3.23;;;37.30;1.00;;;;;;5056948;28;20481;-70
2023/04/29 07:30:36;;;;;;;5.00;3.27;;;38.70;1.00;;;;;;5060458;28;20536;-69
2023/04/29 07:33:03;;;;;;;5.30;2.60;;;39.50;1.00;;;;;;5063186;28;21297;-70
2023/04/29 07:35:30;;;;;;;4.90;2.67;;;40.20;1.00;;;;;;5062576;28;20486;-70
2023/04/29 07:37:58;;;;;;;4.40;2.77;;;40.80;1.00;;;;;;5062296;28;20540;-69
2023/04/29 07:40:25;;;;;;;4.13;2.87;;;40.60;1.00;;;;;;5057822;28;20492;-70
2023/04/29 07:42:52;;;;;;;5.80;2.80;;;40.00;1.00;;;;;;5063566;28;20469;-70
2023/04/29 07:45:18;;;;;;;5.17;3.63;;;39.00;1.00;;;;;;5062483;28;20477;-70
2023/04/29 07:47:45;;;;;;;4.27;2.60;;;37.80;1.00;;;;;;5052584;28;20457;-69
2023/04/29 07:50:12;;;;;;;4.93;2.47;;;37.00;1.00;;;;;;5062052;28;20524;-69
2023/04/29 07:52:39;;;;;;;4.60;2.70;;;35.40;1.00;;;;;;5052255;28;21284;-69
2023/04/29 07:55:08;;;;;;;4.47;2.30;;;34.00;1.00;;;;;;5059434;28;20488;-70
2023/04/29 07:57:35;;;;;;;4.60;1.80;;;32.60;1.00;;;;;;5053643;28;20510;-69
2023/04/29 08:00:02;;;;;;;4.80;2.40;;;31.40;1.00;;;;;;5052840;28;20461;-72
2023/04/29 08:02:29;;;;;;;3.97;1.70;;;30.00;1.00;;;;;;5054324;28;20473;-72
2023/04/29 08:04:56;;;;;;;4.10;2.00;;;28.60;1.00;;;;;;5050459;28;20504;-72
2023/04/29 08:07:23;;;;;;;4.83;1.50;;;27.40;1.10;;;;;;5058081;28;20465;-71
2023/04/29 08:09:50;;;;;;;3.90;1.50;;;27.90;2.30;;;;;;5061104;28;20472;-70
2023/04/29 08:12:18;;;;;;;6.07;1.50;;;30.40;1.00;;;;;;5064483;28;20485;-70
2023/04/29 08:14:44;;;;;;;4.60;1.40;;;33.40;1.00;;;;;;5059431;28;20499;-70
2023/04/29 08:17:11;;;;;;;6.03;1.13;;;36.50;1.00;;;;;;5059169;28;20476;-70
2023/04/29 08:19:38;;;;;;;3.70;0.90;;;39.00;1.00;;;;;;5054838;28;20485;-71
2023/04/29 08:22:05;;;;;;;3.70;0.90;;;40.70;1.00;;;;;;5054207;28;20472;-70
2023/04/29 08:24:33;;;;;;;4.00;1.00;;;41.40;1.00;;;;;;5052019;28;20485;-69
2023/04/29 08:27:00;;;;;;;5.70;0.97;;;41.80;1.00;;;;;;5067330;28;20701;-70
2023/04/29 08:29:31;;;;;;;4.33;0.90;;;40.90;1.00;;;;;;5056638;28;20485;-70
2023/04/29 08:31:58;;;;;;;3.47;0.90;;;39.20;1.00;;;;;;5066250;28;21048;-70
2023/04/29 08:34:25;;;;;;;4.00;1.00;;;37.20;1.00;;;;;;5056361;28;20493;-70
2023/04/29 08:36:52;;;;;;;3.73;0.80;;;38.40;1.00;;;;;;5064654;28;20468;-70
2023/04/29 08:39:19;;;;;;;3.00;0.70;;;40.40;1.00;;;;;;5060937;28;20988;-69
2023/04/29 08:41:50;;;;;;;3.17;0.70;;;41.90;1.00;;;;;;5064196;28;20468;-69
2023/04/29 08:44:16;;;;;;;4.13;0.80;;;42.90;1.00;;;;;;5056589;28;20571;-69
2023/04/29 08:46:46;;;;;;;4.50;0.70;;;43.60;1.00;;;;;;5061841;28;20960;-69
2023/04/29 08:49:13;;;;;;;2.90;0.53;;;42.80;1.00;;;;;;5064234;28;20557;-70
2023/04/29 08:51:39;;;;;;;2.90;0.77;;;43.00;1.00;;;;;;5068479;28;20832;-69
2023/04/29 08:54:06;;;;;;;3.57;0.80;;;43.20;1.00;;;;;;5061703;28;21112;-69
2023/04/29 08:56:34;;;;;;;3.60;0.80;;;41.90;1.00;;;;;;5068916;28;20504;-70
2023/04/29 08:59:03;;;;;;;3.57;0.83;;;41.00;1.00;;;;;;5064725;28;20488;-70
2023/04/29 09:01:30;;;;;;;4.40;1.00;;;41.10;1.00;;;;;;5061186;28;20466;-70
2023/04/29 09:04:12;;;;;;;3.93;0.70;;;41.80;1.00;;;;;;5060976;28;20479;-70
2023/04/29 09:06:38;;;;;;;3.07;0.70;;;43.70;1.00;;;;;;5064309;28;20473;-69
2023/04/29 09:09:06;;;;;;;3.80;0.80;;;44.40;1.00;;;;;;5073435;28;20460;-70
2023/04/29 09:11:34;;;;;;;3.10;0.63;;;44.40;1.00;;;;;;5070025;28;20461;-70
2023/04/29 09:14:03;;;;;;;2.90;0.60;;;45.50;1.00;;;;;;5071444;28;20508;-70
2023/04/29 09:16:30;;;;;;;3.03;0.70;;;46.90;1.00;;;;;;5068294;28;20992;-70
2023/04/29 09:18:57;;;;;;;2.80;0.70;;;47.70;1.00;;;;;;5072964;28;20484;-70
2023/04/29 09:21:26;;;;;;;3.00;0.70;;;48.30;1.00;;;;;;5064305;28;20468;-69
2023/04/29 09:23:54;;;;;;;3.10;0.70;;;47.40;1.00;;;;;;5070412;28;20485;-70
2023/04/29 09:26:22;;;;;;;3.30;0.90;;;47.40;1.00;;;;;;5065553;28;20468;-70
2023/04/29 09:29:06;;;;;;;3.83;0.60;;;46.10;1.00;;;;;;5069660;28;20461;-71
2023/04/29 09:31:33;;;;;;;5.77;0.90;;;44.20;1.00;;;;;;5062013;28;20474;-70
2023/04/29 09:34:00;;;;;;;3.00;0.70;;;43.30;1.00;;;;;;5067809;28;20890;-70
2023/04/29 09:36:39;;;;;;;2.90;0.80;;;43.70;1.00;;;;;;5058429;28;20472;-70
2023/04/29 09:39:10;;;;;;;3.17;0.63;;;44.60;1.00;;;;;;5064283;28;20975;-70
2023/04/29 09:41:38;;;;;;;4.20;0.67;;;43.90;1.00;;;;;;5069138;28;20469;-70
2023/04/29 09:44:05;;;;;;;2.93;0.60;;;44.30;1.00;;;;;;5068994;28;20490;-70
2023/04/29 09:46:33;;;;;;;2.70;0.40;;;45.30;1.00;;;;;;5068523;28;20457;-70
2023/04/29 09:49:00;;;;;;;2.93;0.60;;;46.00;1.00;;;;;;5066653;28;20496;-70
2023/04/29 09:51:27;;;;;;;2.97;0.67;;;46.70;1.00;;;;;;5067207;28;20777;-70
2023/04/29 09:53:55;;;;;;;3.00;0.80;;;45.00;1.00;;;;;;5069052;28;20639;-70
2023/04/29 09:56:22;;;;;;;3.10;0.60;;;44.60;1.00;;;;;;5058769;28;20801;-70
2023/04/29 09:58:49;;;;;;;3.40;0.90;;;43.60;1.00;;;;;;5073899;28;20493;-70
2023/04/29 10:01:18;;;;;;;3.03;0.60;;;42.30;1.00;;;;;;5063327;28;20851;-70
2023/04/29 10:03:47;;;;;;;3.10;0.70;;;42.60;1.00;;;;;;5068090;28;20505;-69
2023/04/29 10:06:16;;;;;;;3.30;0.53;;;43.30;1.00;;;;;;5064317;28;20461;-70
2023/04/29 10:08:46;;;;;;;3.53;0.60;;;42.80;1.00;;;;;;5067914;28;20479;-70
2023/04/29 10:11:15;;;;;;;5.47;0.60;;;41.10;1.00;;;;;;5067103;28;21000;-70
2023/04/29 10:13:43;;;;;;;4.33;1.17;;;41.80;1.00;;;;;;5069346;28;20487;-70
2023/04/29 10:16:20;;;;;;;3.70;0.80;;;42.30;1.00;;;;;;5070752;28;20513;-69
2023/04/29 10:18:53;;;;;;;3.30;0.70;;;42.40;1.00;;;;;;5067657;28;21079;-70
2023/04/29 10:21:24;;;;;;;3.10;0.77;;;42.00;1.00;;;;;;5067273;28;21006;-70
2023/04/29 10:23:52;;;;;;;3.30;1.00;;;40.60;1.00;;;;;;5066848;28;20481;-70
2023/04/29 10:26:22;;;;;;;3.30;0.93;;;38.50;1.00;;;;;;5063578;28;20468;-69
2023/04/29 10:28:51;;;;;;;3.73;1.20;;;36.50;1.00;;;;;;5072728;28;20450;-70
2023/04/29 10:31:20;;;;;;;3.43;1.20;;;34.60;1.00;;;;;;5069738;28;20461;-69
2023/04/29 10:33:47;;;;;;;4.10;0.80;;;33.10;1.00;;;;;;5069207;28;20477;-70
2023/04/29 10:36:15;;;;;;;4.00;1.30;;;31.60;1.00;;;;;;5067822;28;21240;-70
2023/04/29 10:38:47;;;;;;;4.10;0.90;;;30.70;1.00;;;;;;5067350;28;20473;-68
2023/04/29 10:41:20;;;;;;;3.93;0.90;;;29.90;1.00;;;;;;5065132;28;20462;-70
2023/04/29 10:43:48;;;;;;;3.93;1.07;;;29.20;1.00;;;;;;5063954;28;20493;-69
2023/04/29 10:46:19;;;;;;;4.80;0.80;;;28.50;1.00;;;;;;5061441;28;20472;-69
2023/04/29 10:48:46;;;;;;;4.60;1.10;;;27.90;1.00;;;;;;5057506;28;20465;-70
2023/04/29 10:51:27;;;;;;;4.30;0.93;;;27.30;1.00;;;;;;5049214;28;20462;-70
2023/04/29 10:54:02;;;;;;;3.50;1.00;;;26.90;1.00;;;;;;5046341;28;20604;-70
2023/04/29 10:56:40;;;;;;;4.07;1.40;;;26.30;1.00;;;;;;5057663;28;20465;-70
2023/04/29 10:59:15;;;;;;;6.23;1.60;;;25.90;1.10;;;;;;5053692;28;20492;-70
2023/04/29 11:01:44;;;;;;;4.03;1.43;;;25.60;1.00;;;;;;5059688;28;20476;-70
2023/04/29 11:04:11;;;;;;;4.57;1.40;;;25.40;1.50;;;;;;5064483;28;20486;-69
2023/04/29 11:06:46;;;;;;;3.93;1.23;;;25.20;2.70;;;;;;5059679;28;20472;-70
2023/04/29 11:09:18;;;;;;;5.80;2.10;;;25.00;3.10;;;;;;5061834;28;20491;-70
2023/04/29 11:11:57;;;;;;;4.17;1.60;;;24.80;4.10;;;;;;5061160;28;21028;-70
2023/04/29 11:14:26;;;;;;;4.83;1.17;;;24.50;3.50;;;;;;5062936;28;21062;-69
2023/04/29 11:16:56;;;;;;;4.20;1.20;;;24.30;3.60;;;;;;5039270;28;20464;-69
2023/04/29 11:19:25;;;;;;;4.80;0.87;;;24.20;4.30;;;;;;5053527;28;20492;-69
2023/04/29 11:22:14;;;;;;;3.83;1.43;;;24.10;4.30;;;;;;5054637;28;20474;-70
2023/04/29 11:24:52;;;;;;;4.37;1.50;;;24.10;4.50;;;;;;5060764;28;20484;-71
2023/04/29 11:27:23;;;;;;;4.07;1.30;;;24.10;3.60;;;;;;5062203;28;20555;-70
2023/04/29 11:29:54;;;;;;;4.70;1.30;;;24.00;4.20;;;;;;5052301;28;21003;-69
2023/04/29 11:32:21;;;;;;;3.60;1.10;;;24.10;4.30;;;;;;5062127;28;20563;-70
2023/04/29 11:34:48;;;;;;;4.10;1.50;;;24.10;4.10;;;;;;5058734;22;20624;-70
2023/04/29 11:37:23;;;;;;;4.73;1.40;;;23.90;3.40;;;;;;5054084;28;20468;-69
2023/04/29 11:39:51;;;;;;;5.00;1.97;;;23.80;4.10;;;;;;5047685;28;20488;-69
2023/04/29 11:42:21;;;;;;;4.00;1.63;;;23.70;5.00;;;;;;5053770;28;20480;-69
2023/04/29 11:44:55;;;;;;;4.20;1.33;;;23.70;5.10;;;;;;5034375;28;20490;-69
2023/04/29 11:47:26;;;;;;;5.87;1.27;;;23.70;4.80;;;;;;5032918;28;20975;-69
2023/04/29 11:49:53;;;;;;;80.10;37.33;;;23.60;4.30;;;;;;5037070;28;20553;-70
2023/04/29 11:52:20;;;;;;;6.50;1.87;;;23.50;5.50;;;;;;5033077;28;20474;-70
2023/04/29 13:06:46;;;;;;;5.07;1.10;;;20.50;11.20;;;;;;5012428;27;20933;-70
2023/04/29 13:09:13;;;;;;;5.00;1.20;;;20.30;11.30;;;;;;5032344;28;20582;-70
2023/04/29 13:11:40;;;;;;;3.90;1.30;;;20.40;11.00;;;;;;5016596;27;20467;-70
2023/04/29 13:14:07;;;;;;;3.77;1.30;;;20.40;11.00;;;;;;5023453;28;20870;-69
2023/04/29 13:16:34;;;;;;;3.80;1.43;;;20.50;11.30;;;;;;5011576;28;20462;-69
2023/04/29 13:19:01;;;;;;;3.73;1.60;;;20.60;10.30;;;;;;5011700;28;20986;-70
2023/04/29 13:21:30;;;;;;;4.30;1.40;;;20.70;10.00;;;;;;5006211;28;20479;-70
2023/04/29 13:23:59;;;;;;;3.70;1.00;;;20.80;11.00;;;;;;5015061;28;20466;-69
2023/04/29 13:26:26;;;;;;;4.20;1.40;;;20.80;9.50;;;;;;5007741;28;20490;-69
2023/04/29 13:28:53;;;;;;;4.27;1.27;;;20.90;9.30;;;;;;5012269;28;20519;-70
2023/04/29 13:31:20;;;;;;;4.03;1.00;;;21.00;9.80;;;;;;5036251;27;20476;-70
2023/04/29 13:33:47;;;;;;;4.40;1.47;;;21.00;8.90;;;;;;5012831;28;20550;-69
2023/04/29 13:36:14;;;;;;;4.17;1.37;;;21.00;9.00;;;;;;5011038;28;20535;-71
2023/04/29 13:38:41;;;;;;;3.60;1.10;;;21.00;9.20;;;;;;5011813;28;20513;-70
2023/04/29 13:41:09;;;;;;;11.03;6.63;;;21.10;8.90;;;;;;5006925;28;20503;-70
2023/04/29 13:43:36;;;;;;;4.00;1.30;;;21.20;7.80;;;;;;5011705;28;20474;-66
2023/04/29 13:46:03;;;;;;;4.10;1.30;;;21.30;8.10;;;;;;5020742;28;20494;-69
2023/04/29 13:48:29;;;;;;;4.00;1.47;;;21.40;9.00;;;;;;5011797;28;20471;-69
2023/04/29 13:50:56;;;;;;;4.30;1.50;;;21.50;8.40;;;;;;5011045;28;20927;-70
2023/04/29 13:53:23;;;;;;;4.53;1.50;;;21.60;7.10;;;;;;5013412;28;20459;-69
2023/04/29 13:55:49;;;;;;;4.33;1.47;;;21.60;7.30;;;;;;5007982;28;20483;-70
2023/04/29 13:58:17;;;;;;;4.50;1.47;;;21.60;7.20;;;;;;5013716;28;20485;-70
2023/04/29 14:00:44;;;;;;;3.90;1.30;;;21.70;7.30;;;;;;5006328;28;20491;-70